sensor_id;sensor_type;location;lat;lon;timestamp;temperature;humidity
44117;DHT22;29781;49.480;8.512;2023-04-29T00:00:34;13.60;99.90
44117;DHT22;29781;49.480;8.512;2023-04-29T00:03:00;13.50;99.90
44117;DHT22;29781;49.480;8.512;2023-04-29T00:05:26;13.50;99.90
44117;DHT22;29781;49.480;8.512;2023-04-29T00:07:52;13.50;99.90
44117;DHT22;29781;49.480;8.512;2023-04-29T00:10:18;13.50;99.90
44117;DHT22;29781;49.480;8.512;2023-04-29T00:12:43;13.40;99.90
44117;DHT22;29781;49.480;8.512;2023-04-29T00:15:09;13.40;99.90
44117;DHT22;29781;49.480;8.512;2023-04-29T00:17:35;13.50;99.90
44117;DHT22;29781;49.480;8.512;2023-04-29T00:20:01;13.60;99.90
44117;DHT22;29781;49.480;8.512;2023-04-29T00:22:27;13.70;99.90
44117;DHT22;29781;49.480;8.512;2023-04-29T00:24:53;13.80;99.90
44117;DHT22;29781;49.480;8.512;2023-04-29T00:27:18;14.00;99.90
44117;DHT22;29781;49.480;8.512;2023-04-29T00:29:44;14.00;99.90
44117;DHT22;29781;49.480;8.512;2023-04-29T00:32:10;14.00;99.90
44117;DHT22;29781;49.480;8.512;2023-04-29T00:34:35;13.80;99.90
44117;DHT22;29781;49.480;8.512;2023-04-29T00:37:01;13.60;99.90
44117;DHT22;29781;49.480;8.512;2023-04-29T00:39:26;13.40;99.90
44117;DHT22;29781;49.480;8.512;2023-04-29T00:41:52;13.40;99.90
44117;DHT22;29781;49.480;8.512;2023-04-29T00:44:18;13.40;99.90
44117;DHT22;29781;49.480;8.512;2023-04-29T00:46:43;13.30;99.90
44117;DHT22;29781;49.480;8.512;2023-04-29T00:49:10;13.30;99.90
44117;DHT22;29781;49.480;8.512;2023-04-29T00:51:36;13.60;99.90
44117;DHT22;29781;49.480;8.512;2023-04-29T00:54:03;13.70;99.90
44117;DHT22;29781;49.480;8.512;2023-04-29T00:56:30;13.80;99.90
44117;DHT22;29781;49.480;8.512;2023-04-29T00:58:58;13.90;99.90
44117;DHT22;29781;49.480;8.512;2023-04-29T01:01:24;13.70;99.90
44117;DHT22;29781;49.480;8.512;2023-04-29T01:03:50;13.80;99.90
44117;DHT22;29781;49.480;8.512;2023-04-29T01:06:43;13.90;99.90
44117;DHT22;29781;49.480;8.512;2023-04-29T01:09:38;13.90;99.90
44117;DHT22;29781;49.480;8.512;2023-04-29T01:15:06;13.80;99.90
44117;DHT22;29781;49.480;8.512;2023-04-29T01:17:39;13.80;99.90
44117;DHT22;29781;49.480;8.512;2023-04-29T01:20:08;13.80;99.90
44117;DHT22;29781;49.480;8.512;2023-04-29T01:22:35;13.90;99.90
44117;DHT22;29781;49.480;8.512;2023-04-29T01:25:01;13.90;99.90
44117;DHT22;29781;49.480;8.512;2023-04-29T01:36:35;13.70;99.90
44117;DHT22;29781;49.480;8.512;2023-04-29T01:39:19;13.30;99.90
44117;DHT22;29781;49.480;8.512;2023-04-29T01:41:56;13.00;99.90
44117;DHT22;29781;49.480;8.512;2023-04-29T01:44:23;13.10;99.90
44117;DHT22;29781;49.480;8.512;2023-04-29T01:46:52;13.30;99.90
44117;DHT22;29781;49.480;8.512;2023-04-29T01:49:23;13.50;99.90
44117;DHT22;29781;49.480;8.512;2023-04-29T01:51:49;13.50;99.90
44117;DHT22;29781;49.480;8.512;2023-04-29T01:54:15;13.40;99.90
44117;DHT22;29781;49.480;8.512;2023-04-29T01:56:41;13.40;99.90
44117;DHT22;29781;49.480;8.512;2023-04-29T01:59:06;13.40;99.90
44117;DHT22;29781;49.480;8.512;2023-04-29T02:01:32;13.40;99.90
44117;DHT22;29781;49.480;8.512;2023-04-29T02:03:58;13.40;99.90
44117;DHT22;29781;49.480;8.512;2023-04-29T02:06:24;13.30;99.90
44117;DHT22;29781;49.480;8.512;2023-04-29T02:08:49;13.00;99.90
44117;DHT22;29781;49.480;8.512;2023-04-29T02:11:15;12.90;99.90
44117;DHT22;29781;49.480;8.512;2023-04-29T02:13:40;12.90;99.90
44117;DHT22;29781;49.480;8.512;2023-04-29T02:16:09;13.00;99.90
44117;DHT22;29781;49.480;8.512;2023-04-29T02:18:35;13.20;99.90
44117;DHT22;29781;49.480;8.512;2023-04-29T02:21:01;13.20;99.90
44117;DHT22;29781;49.480;8.512;2023-04-29T02:23:26;13.30;99.90
44117;DHT22;29781;49.480;8.512;2023-04-29T02:25:52;13.30;99.90
44117;DHT22;29781;49.480;8.512;2023-04-29T02:28:18;13.40;99.90
44117;DHT22;29781;49.480;8.512;2023-04-29T02:30:43;13.50;99.90
44117;DHT22;29781;49.480;8.512;2023-04-29T02:33:09;13.60;99.90
44117;DHT22;29781;49.480;8.512;2023-04-29T02:35:35;13.50;99.90
44117;DHT22;29781;49.480;8.512;2023-04-29T02:38:00;13.70;99.90
44117;DHT22;29781;49.480;8.512;2023-04-29T02:40:26;13.70;99.90
44117;DHT22;29781;49.480;8.512;2023-04-29T02:42:51;13.70;99.90
44117;DHT22;29781;49.480;8.512;2023-04-29T02:45:17;13.70;99.90
44117;DHT22;29781;49.480;8.512;2023-04-29T02:47:42;13.80;99.90
44117;DHT22;29781;49.480;8.512;2023-04-29T02:50:08;13.90;99.90
44117;DHT22;29781;49.480;8.512;2023-04-29T02:52:34;13.90;99.90
44117;DHT22;29781;49.480;8.512;2023-04-29T02:55:00;13.80;99.90
44117;DHT22;29781;49.480;8.512;2023-04-29T02:57:25;13.80;99.90
44117;DHT22;29781;49.480;8.512;2023-04-29T02:59:51;13.70;99.90
44117;DHT22;29781;49.480;8.512;2023-04-29T03:02:16;13.60;99.90
44117;DHT22;29781;49.480;8.512;2023-04-29T03:04:42;13.60;99.90
44117;DHT22;29781;49.480;8.512;2023-04-29T03:07:17;13.50;99.90
44117;DHT22;29781;49.480;8.512;2023-04-29T03:09:42;13.60;99.90
44117;DHT22;29781;49.480;8.512;2023-04-29T03:12:08;13.70;99.90
44117;DHT22;29781;49.480;8.512;2023-04-29T03:14:33;13.80;99.90
44117;DHT22;29781;49.480;8.512;2023-04-29T03:17:00;13.80;99.90
44117;DHT22;29781;49.480;8.512;2023-04-29T03:19:26;13.80;99.90
44117;DHT22;29781;49.480;8.512;2023-04-29T03:21:51;13.70;99.90
44117;DHT22;29781;49.480;8.512;2023-04-29T03:24:17;13.70;99.90
44117;DHT22;29781;49.480;8.512;2023-04-29T03:26:42;13.70;99.90
44117;DHT22;29781;49.480;8.512;2023-04-29T03:29:08;13.40;99.90
44117;DHT22;29781;49.480;8.512;2023-04-29T03:31:34;13.30;99.90
44117;DHT22;29781;49.480;8.512;2023-04-29T03:33:59;13.20;99.90
44117;DHT22;29781;49.480;8.512;2023-04-29T03:36:25;13.00;99.90
44117;DHT22;29781;49.480;8.512;2023-04-29T03:38:50;12.90;99.90
44117;DHT22;29781;49.480;8.512;2023-04-29T03:41:16;13.00;99.90
44117;DHT22;29781;49.480;8.512;2023-04-29T03:43:42;13.00;99.90
44117;DHT22;29781;49.480;8.512;2023-04-29T03:46:10;13.00;99.90
44117;DHT22;29781;49.480;8.512;2023-04-29T03:48:36;13.10;99.90
44117;DHT22;29781;49.480;8.512;2023-04-29T03:51:02;13.20;99.90
44117;DHT22;29781;49.480;8.512;2023-04-29T03:53:27;13.30;99.90
44117;DHT22;29781;49.480;8.512;2023-04-29T03:55:53;13.30;99.90
44117;DHT22;29781;49.480;8.512;2023-04-29T03:58:18;13.10;99.90
44117;DHT22;29781;49.480;8.512;2023-04-29T04:00:44;13.10;99.90
44117;DHT22;29781;49.480;8.512;2023-04-29T04:03:10;13.30;99.90
44117;DHT22;29781;49.480;8.512;2023-04-29T04:05:35;13.40;99.90
44117;DHT22;29781;49.480;8.512;2023-04-29T04:08:01;13.30;99.90
44117;DHT22;29781;49.480;8.512;2023-04-29T04:10:26;13.20;99.90
44117;DHT22;29781;49.480;8.512;2023-04-29T04:12:52;13.30;99.90
44117;DHT22;29781;49.480;8.512;2023-04-29T04:15:18;13.30;99.90
44117;DHT22;29781;49.480;8.512;2023-04-29T04:17:44;13.10;99.90
44117;DHT22;29781;49.480;8.512;2023-04-29T04:20:10;12.90;99.90
44117;DHT22;29781;49.480;8.512;2023-04-29T04:22:35;12.90;99.90
44117;DHT22;29781;49.480;8.512;2023-04-29T04:25:02;12.60;99.90
44117;DHT22;29781;49.480;8.512;2023-04-29T04:27:28;12.50;99.90
44117;DHT22;29781;49.480;8.512;2023-04-29T04:29:54;12.60;99.90
44117;DHT22;29781;49.480;8.512;2023-04-29T04:32:21;12.80;99.90
44117;DHT22;29781;49.480;8.512;2023-04-29T04:34:48;12.90;99.90
44117;DHT22;29781;49.480;8.512;2023-04-29T04:37:13;13.00;99.90
44117;DHT22;29781;49.480;8.512;2023-04-29T04:39:39;13.00;99.90
44117;DHT22;29781;49.480;8.512;2023-04-29T04:42:04;13.00;99.90
44117;DHT22;29781;49.480;8.512;2023-04-29T04:44:31;12.70;99.90
44117;DHT22;29781;49.480;8.512;2023-04-29T04:46:56;12.50;99.90
44117;DHT22;29781;49.480;8.512;2023-04-29T04:49:23;12.30;99.90
44117;DHT22;29781;49.480;8.512;2023-04-29T04:51:52;12.20;99.90
44117;DHT22;29781;49.480;8.512;2023-04-29T04:54:17;12.10;99.90
44117;DHT22;29781;49.480;8.512;2023-04-29T04:56:43;12.10;99.90
44117;DHT22;29781;49.480;8.512;2023-04-29T04:59:08;12.30;99.90
44117;DHT22;29781;49.480;8.512;2023-04-29T05:01:34;12.60;99.90
44117;DHT22;29781;49.480;8.512;2023-04-29T05:04:00;12.80;99.90
44117;DHT22;29781;49.480;8.512;2023-04-29T05:06:27;12.90;99.90
44117;DHT22;29781;49.480;8.512;2023-04-29T05:08:52;12.80;99.90
44117;DHT22;29781;49.480;8.512;2023-04-29T05:11:19;12.90;99.90
44117;DHT22;29781;49.480;8.512;2023-04-29T05:13:46;13.10;99.90
44117;DHT22;29781;49.480;8.512;2023-04-29T05:16:11;13.10;99.90
44117;DHT22;29781;49.480;8.512;2023-04-29T05:18:37;13.20;99.90
44117;DHT22;29781;49.480;8.512;2023-04-29T05:21:03;13.20;99.90
44117;DHT22;29781;49.480;8.512;2023-04-29T05:23:28;13.10;99.90
44117;DHT22;29781;49.480;8.512;2023-04-29T05:25:54;13.20;99.90
44117;DHT22;29781;49.480;8.512;2023-04-29T05:28:20;13.30;99.90
44117;DHT22;29781;49.480;8.512;2023-04-29T05:30:45;13.30;99.90
44117;DHT22;29781;49.480;8.512;2023-04-29T05:33:12;13.30;99.90
44117;DHT22;29781;49.480;8.512;2023-04-29T05:35:37;13.20;99.90
44117;DHT22;29781;49.480;8.512;2023-04-29T05:38:03;13.10;99.90
44117;DHT22;29781;49.480;8.512;2023-04-29T05:40:28;13.00;99.90
44117;DHT22;29781;49.480;8.512;2023-04-29T05:42:54;13.00;99.90
44117;DHT22;29781;49.480;8.512;2023-04-29T05:45:19;12.90;99.90
44117;DHT22;29781;49.480;8.512;2023-04-29T05:47:45;12.90;99.90
44117;DHT22;29781;49.480;8.512;2023-04-29T05:50:11;12.80;99.90
44117;DHT22;29781;49.480;8.512;2023-04-29T05:52:37;12.80;99.90
44117;DHT22;29781;49.480;8.512;2023-04-29T05:55:03;12.80;99.90
44117;DHT22;29781;49.480;8.512;2023-04-29T05:57:28;12.90;99.90
44117;DHT22;29781;49.480;8.512;2023-04-29T05:59:54;13.00;99.90
44117;DHT22;29781;49.480;8.512;2023-04-29T06:02:20;13.00;99.90
44117;DHT22;29781;49.480;8.512;2023-04-29T06:04:45;13.00;99.90
44117;DHT22;29781;49.480;8.512;2023-04-29T06:07:12;13.10;99.90
44117;DHT22;29781;49.480;8.512;2023-04-29T06:09:38;13.20;99.90
44117;DHT22;29781;49.480;8.512;2023-04-29T06:12:04;13.30;99.90
44117;DHT22;29781;49.480;8.512;2023-04-29T06:14:30;13.40;99.90
44117;DHT22;29781;49.480;8.512;2023-04-29T06:16:56;13.40;99.90
44117;DHT22;29781;49.480;8.512;2023-04-29T06:19:21;13.50;99.90
44117;DHT22;29781;49.480;8.512;2023-04-29T06:21:47;13.50;99.90
44117;DHT22;29781;49.480;8.512;2023-04-29T06:24:13;13.60;99.90
44117;DHT22;29781;49.480;8.512;2023-04-29T06:26:38;13.50;99.90
44117;DHT22;29781;49.480;8.512;2023-04-29T06:29:04;13.50;99.90
44117;DHT22;29781;49.480;8.512;2023-04-29T06:31:29;13.30;99.90
44117;DHT22;29781;49.480;8.512;2023-04-29T06:33:55;13.30;99.90
44117;DHT22;29781;49.480;8.512;2023-04-29T06:36:21;13.30;99.90
44117;DHT22;29781;49.480;8.512;2023-04-29T06:38:46;13.40;99.90
44117;DHT22;29781;49.480;8.512;2023-04-29T06:41:12;13.50;99.90
44117;DHT22;29781;49.480;8.512;2023-04-29T06:43:37;13.30;99.90
44117;DHT22;29781;49.480;8.512;2023-04-29T06:46:03;13.40;99.90
44117;DHT22;29781;49.480;8.512;2023-04-29T06:48:28;13.40;99.90
44117;DHT22;29781;49.480;8.512;2023-04-29T06:50:56;13.30;99.90
44117;DHT22;29781;49.480;8.512;2023-04-29T06:53:22;13.40;99.90
44117;DHT22;29781;49.480;8.512;2023-04-29T06:55:48;13.30;99.90
44117;DHT22;29781;49.480;8.512;2023-04-29T06:58:14;13.40;99.90
44117;DHT22;29781;49.480;8.512;2023-04-29T07:00:43;13.30;99.90
44117;DHT22;29781;49.480;8.512;2023-04-29T07:03:09;13.20;99.90
44117;DHT22;29781;49.480;8.512;2023-04-29T07:05:38;13.10;99.90
44117;DHT22;29781;49.480;8.512;2023-04-29T07:08:06;13.00;99.90
44117;DHT22;29781;49.480;8.512;2023-04-29T07:10:32;12.80;99.90
44117;DHT22;29781;49.480;8.512;2023-04-29T07:12:57;12.70;99.90
44117;DHT22;29781;49.480;8.512;2023-04-29T07:15:25;12.80;99.90
44117;DHT22;29781;49.480;8.512;2023-04-29T07:17:50;13.00;99.90
44117;DHT22;29781;49.480;8.512;2023-04-29T07:20:16;13.10;99.90
44117;DHT22;29781;49.480;8.512;2023-04-29T07:22:42;13.00;99.90
44117;DHT22;29781;49.480;8.512;2023-04-29T07:25:08;12.80;99.90
44117;DHT22;29781;49.480;8.512;2023-04-29T07:27:35;12.70;99.90
44117;DHT22;29781;49.480;8.512;2023-04-29T07:30:01;12.80;99.90
44117;DHT22;29781;49.480;8.512;2023-04-29T07:32:27;12.80;99.90
44117;DHT22;29781;49.480;8.512;2023-04-29T07:34:53;12.80;99.90
44117;DHT22;29781;49.480;8.512;2023-04-29T07:37:18;12.70;99.90
44117;DHT22;29781;49.480;8.512;2023-04-29T07:39:44;12.70;99.90
44117;DHT22;29781;49.480;8.512;2023-04-29T07:42:10;12.80;99.90
44117;DHT22;29781;49.480;8.512;2023-04-29T07:44:35;12.80;99.90
44117;DHT22;29781;49.480;8.512;2023-04-29T07:47:01;12.90;99.90
44117;DHT22;29781;49.480;8.512;2023-04-29T07:49:27;13.00;99.90
44117;DHT22;29781;49.480;8.512;2023-04-29T07:51:53;13.00;99.90
44117;DHT22;29781;49.480;8.512;2023-04-29T07:54:18;13.10;99.90
44117;DHT22;29781;49.480;8.512;2023-04-29T07:56:47;13.00;99.90
44117;DHT22;29781;49.480;8.512;2023-04-29T07:59:12;12.80;99.90
44117;DHT22;29781;49.480;8.512;2023-04-29T08:01:40;12.70;99.90
44117;DHT22;29781;49.480;8.512;2023-04-29T08:04:06;12.70;99.90
44117;DHT22;29781;49.480;8.512;2023-04-29T08:06:32;12.70;99.90
44117;DHT22;29781;49.480;8.512;2023-04-29T08:08:58;12.80;99.90
44117;DHT22;29781;49.480;8.512;2023-04-29T08:11:23;12.90;99.90
44117;DHT22;29781;49.480;8.512;2023-04-29T08:13:50;13.00;99.90
44117;DHT22;29781;49.480;8.512;2023-04-29T08:16:16;13.10;99.90
44117;DHT22;29781;49.480;8.512;2023-04-29T08:18:42;13.10;99.90
44117;DHT22;29781;49.480;8.512;2023-04-29T08:21:08;13.20;99.90
44117;DHT22;29781;49.480;8.512;2023-04-29T08:23:38;13.30;99.90
44117;DHT22;29781;49.480;8.512;2023-04-29T08:26:04;13.30;99.90
44117;DHT22;29781;49.480;8.512;2023-04-29T08:28:29;13.30;99.90
44117;DHT22;29781;49.480;8.512;2023-04-29T08:30:55;13.50;99.90
44117;DHT22;29781;49.480;8.512;2023-04-29T08:33:23;13.60;99.90
44117;DHT22;29781;49.480;8.512;2023-04-29T08:35:57;13.50;99.90
44117;DHT22;29781;49.480;8.512;2023-04-29T08:38:22;13.50;99.90
44117;DHT22;29781;49.480;8.512;2023-04-29T08:40:48;13.30;99.90
44117;DHT22;29781;49.480;8.512;2023-04-29T08:43:13;13.20;99.90
44117;DHT22;29781;49.480;8.512;2023-04-29T08:45:41;13.20;99.90
44117;DHT22;29781;49.480;8.512;2023-04-29T08:48:08;13.20;99.90
44117;DHT22;29781;49.480;8.512;2023-04-29T08:50:37;13.20;99.90
44117;DHT22;29781;49.480;8.512;2023-04-29T08:53:07;13.00;99.90
44117;DHT22;29781;49.480;8.512;2023-04-29T08:55:43;13.00;99.90
44117;DHT22;29781;49.480;8.512;2023-04-29T08:58:09;13.10;99.90
44117;DHT22;29781;49.480;8.512;2023-04-29T09:00:35;13.20;99.90
44117;DHT22;29781;49.480;8.512;2023-04-29T09:03:17;13.40;99.90
44117;DHT22;29781;49.480;8.512;2023-04-29T09:05:48;13.40;99.90
44117;DHT22;29781;49.480;8.512;2023-04-29T09:08:15;13.20;99.90
44117;DHT22;29781;49.480;8.512;2023-04-29T09:10:41;13.40;99.90
44117;DHT22;29781;49.480;8.512;2023-04-29T09:13:07;13.40;99.90
44117;DHT22;29781;49.480;8.512;2023-04-29T09:15:37;13.60;99.90
44117;DHT22;29781;49.480;8.512;2023-04-29T09:18:04;13.70;99.90
44117;DHT22;29781;49.480;8.512;2023-04-29T09:20:30;13.70;99.90
44117;DHT22;29781;49.480;8.512;2023-04-29T09:22:58;13.90;99.90
44117;DHT22;29781;49.480;8.512;2023-04-29T09:25:24;13.90;99.90
44117;DHT22;29781;49.480;8.512;2023-04-29T09:27:51;13.90;99.90
44117;DHT22;29781;49.480;8.512;2023-04-29T09:30:17;13.80;99.90
44117;DHT22;29781;49.480;8.512;2023-04-29T09:32:44;13.80;99.90
44117;DHT22;29781;49.480;8.512;2023-04-29T09:35:24;13.50;99.90
44117;DHT22;29781;49.480;8.512;2023-04-29T09:37:50;13.60;99.90
44117;DHT22;29781;49.480;8.512;2023-04-29T09:40:31;13.80;99.90
44117;DHT22;29781;49.480;8.512;2023-04-29T09:42:57;14.00;99.90
44117;DHT22;29781;49.480;8.512;2023-04-29T09:45:33;14.00;99.90
44117;DHT22;29781;49.480;8.512;2023-04-29T09:48:06;14.00;99.90
44117;DHT22;29781;49.480;8.512;2023-04-29T09:50:33;14.00;99.90
44117;DHT22;29781;49.480;8.512;2023-04-29T09:52:59;14.20;99.90
44117;DHT22;29781;49.480;8.512;2023-04-29T09:55:25;14.20;99.90
44117;DHT22;29781;49.480;8.512;2023-04-29T09:57:54;14.40;99.90
44117;DHT22;29781;49.480;8.512;2023-04-29T10:00:20;14.30;99.90
44117;DHT22;29781;49.480;8.512;2023-04-29T10:02:47;14.00;99.90
44117;DHT22;29781;49.480;8.512;2023-04-29T10:05:14;14.20;99.90
44117;DHT22;29781;49.480;8.512;2023-04-29T10:07:41;14.20;99.90
44117;DHT22;29781;49.480;8.512;2023-04-29T10:10:11;14.00;99.90
44117;DHT22;29781;49.480;8.512;2023-04-29T10:12:39;14.10;99.90
44117;DHT22;29781;49.480;8.512;2023-04-29T10:15:27;14.00;99.90
44117;DHT22;29781;49.480;8.512;2023-04-29T10:18:20;13.90;99.90
44117;DHT22;29781;49.480;8.512;2023-04-29T10:20:47;14.00;99.90
44117;DHT22;29781;49.480;8.512;2023-04-29T10:23:14;14.10;99.90
44117;DHT22;29781;49.480;8.512;2023-04-29T10:25:41;14.30;99.90
44117;DHT22;29781;49.480;8.512;2023-04-29T10:28:12;14.50;99.90
44117;DHT22;29781;49.480;8.512;2023-04-29T10:30:43;14.60;99.90
44117;DHT22;29781;49.480;8.512;2023-04-29T10:33:10;14.80;99.90
44117;DHT22;29781;49.480;8.512;2023-04-29T10:35:36;15.00;99.90
44117;DHT22;29781;49.480;8.512;2023-04-29T10:38:10;15.10;99.90
44117;DHT22;29781;49.480;8.512;2023-04-29T10:40:43;15.10;99.90
44117;DHT22;29781;49.480;8.512;2023-04-29T10:43:11;15.00;99.90
44117;DHT22;29781;49.480;8.512;2023-04-29T10:45:36;14.80;99.90
44117;DHT22;29781;49.480;8.512;2023-04-29T10:53:08;15.20;99.90
44117;DHT22;29781;49.480;8.512;2023-04-29T10:55:37;15.40;99.90
44117;DHT22;29781;49.480;8.512;2023-04-29T10:58:04;15.70;99.90
44117;DHT22;29781;49.480;8.512;2023-04-29T11:00:32;15.70;99.90
44117;DHT22;29781;49.480;8.512;2023-04-29T11:03:00;15.60;99.90
44117;DHT22;29781;49.480;8.512;2023-04-29T11:08:11;15.30;99.90
44117;DHT22;29781;49.480;8.512;2023-04-29T11:10:40;15.40;99.90
44117;DHT22;29781;49.480;8.512;2023-04-29T11:13:29;15.30;99.90
44117;DHT22;29781;49.480;8.512;2023-04-29T11:16:11;15.30;99.90
44117;DHT22;29781;49.480;8.512;2023-04-29T11:19:03;14.80;99.90
44117;DHT22;29781;49.480;8.512;2023-04-29T11:21:29;15.10;99.90
44117;DHT22;29781;49.480;8.512;2023-04-29T11:23:56;15.30;99.90
44117;DHT22;29781;49.480;8.512;2023-04-29T11:26:23;15.30;99.90
44117;DHT22;29781;49.480;8.512;2023-04-29T11:28:50;15.30;99.90
44117;DHT22;29781;49.480;8.512;2023-04-29T11:31:16;15.00;99.90
44117;DHT22;29781;49.480;8.512;2023-04-29T11:33:42;14.90;99.90
44117;DHT22;29781;49.480;8.512;2023-04-29T11:36:09;15.00;99.90
44117;DHT22;29781;49.480;8.512;2023-04-29T11:38:38;14.70;99.90
44117;DHT22;29781;49.480;8.512;2023-04-29T11:41:04;14.60;99.90
44117;DHT22;29781;49.480;8.512;2023-04-29T11:43:30;14.80;99.90
44117;DHT22;29781;49.480;8.512;2023-04-29T11:45:55;14.70;99.90
44117;DHT22;29781;49.480;8.512;2023-04-29T11:48:22;14.60;99.90
44117;DHT22;29781;49.480;8.512;2023-04-29T11:50:51;14.50;99.90
44117;DHT22;29781;49.480;8.512;2023-04-29T11:53:21;14.60;99.90
44117;DHT22;29781;49.480;8.512;2023-04-29T11:55:51;14.80;99.90
44117;DHT22;29781;49.480;8.512;2023-04-29T11:58:19;14.90;99.90
44117;DHT22;29781;49.480;8.512;2023-04-29T12:00:46;14.70;99.90
44117;DHT22;29781;49.480;8.512;2023-04-29T12:03:16;14.70;99.90
44117;DHT22;29781;49.480;8.512;2023-04-29T12:05:55;14.80;99.90
44117;DHT22;29781;49.480;8.512;2023-04-29T12:10:56;15.00;99.90
44117;DHT22;29781;49.480;8.512;2023-04-29T12:13:25;14.90;99.90
44117;DHT22;29781;49.480;8.512;2023-04-29T12:15:51;15.00;99.90
44117;DHT22;29781;49.480;8.512;2023-04-29T12:18:17;15.30;99.90
44117;DHT22;29781;49.480;8.512;2023-04-29T12:20:44;15.30;99.90
44117;DHT22;29781;49.480;8.512;2023-04-29T12:23:14;15.70;99.90
44117;DHT22;29781;49.480;8.512;2023-04-29T12:25:40;15.70;99.90
44117;DHT22;29781;49.480;8.512;2023-04-29T12:28:12;15.60;99.90
44117;DHT22;29781;49.480;8.512;2023-04-29T12:30:38;15.80;99.90
44117;DHT22;29781;49.480;8.512;2023-04-29T12:33:05;15.60;99.90
44117;DHT22;29781;49.480;8.512;2023-04-29T12:35:32;15.70;99.90
44117;DHT22;29781;49.480;8.512;2023-04-29T12:37:58;15.90;99.90
44117;DHT22;29781;49.480;8.512;2023-04-29T12:40:24;15.40;99.90
44117;DHT22;29781;49.480;8.512;2023-04-29T12:42:51;15.10;99.90
44117;DHT22;29781;49.480;8.512;2023-04-29T12:47:51;15.00;99.90
44117;DHT22;29781;49.480;8.512;2023-04-29T12:50:18;15.00;99.90
44117;DHT22;29781;49.480;8.512;2023-04-29T12:52:44;15.20;99.90
44117;DHT22;29781;49.480;8.512;2023-04-29T12:55:10;15.40;99.90
44117;DHT22;29781;49.480;8.512;2023-04-29T12:57:35;15.40;99.90
44117;DHT22;29781;49.480;8.512;2023-04-29T13:00:03;15.30;99.90
44117;DHT22;29781;49.480;8.512;2023-04-29T13:02:29;15.30;99.90
44117;DHT22;29781;49.480;8.512;2023-04-29T13:04:54;15.40;99.90
44117;DHT22;29781;49.480;8.512;2023-04-29T13:07:20;15.10;99.90
44117;DHT22;29781;49.480;8.512;2023-04-29T13:09:45;14.80;99.90
44117;DHT22;29781;49.480;8.512;2023-04-29T13:12:11;15.10;99.90
44117;DHT22;29781;49.480;8.512;2023-04-29T13:14:36;15.40;99.90
44117;DHT22;29781;49.480;8.512;2023-04-29T13:17:02;15.40;99.90
44117;DHT22;29781;49.480;8.512;2023-04-29T13:19:28;15.60;99.90
44117;DHT22;29781;49.480;8.512;2023-04-29T13:21:53;15.60;99.90
44117;DHT22;29781;49.480;8.512;2023-04-29T13:24:19;15.50;99.90
44117;DHT22;29781;49.480;8.512;2023-04-29T13:26:45;15.60;99.90
44117;DHT22;29781;49.480;8.512;2023-04-29T13:29:12;15.60;99.90
44117;DHT22;29781;49.480;8.512;2023-04-29T13:31:37;15.70;99.90
44117;DHT22;29781;49.480;8.512;2023-04-29T13:34:03;15.80;99.90
44117;DHT22;29781;49.480;8.512;2023-04-29T13:36:29;15.80;99.90
44117;DHT22;29781;49.480;8.512;2023-04-29T13:38:55;15.90;99.90
44117;DHT22;29781;49.480;8.512;2023-04-29T13:41:20;15.80;99.90
44117;DHT22;29781;49.480;8.512;2023-04-29T13:43:47;15.80;99.90
44117;DHT22;29781;49.480;8.512;2023-04-29T13:46:13;15.70;99.90
44117;DHT22;29781;49.480;8.512;2023-04-29T13:48:39;15.80;99.90
44117;DHT22;29781;49.480;8.512;2023-04-29T13:51:04;15.90;99.90
44117;DHT22;29781;49.480;8.512;2023-04-29T13:53:30;15.50;99.90
44117;DHT22;29781;49.480;8.512;2023-04-29T13:55:56;15.50;99.90
44117;DHT22;29781;49.480;8.512;2023-04-29T13:58:21;15.40;99.90
44117;DHT22;29781;49.480;8.512;2023-04-29T14:00:47;15.50;99.90
44117;DHT22;29781;49.480;8.512;2023-04-29T14:03:13;15.60;99.90
44117;DHT22;29781;49.480;8.512;2023-04-29T14:05:41;15.70;99.90
44117;DHT22;29781;49.480;8.512;2023-04-29T14:08:14;15.70;99.90
44117;DHT22;29781;49.480;8.512;2023-04-29T14:10:40;15.60;99.90
44117;DHT22;29781;49.480;8.512;2023-04-29T14:13:05;15.30;99.90
44117;DHT22;29781;49.480;8.512;2023-04-29T14:15:31;15.50;99.90
44117;DHT22;29781;49.480;8.512;2023-04-29T14:17:57;15.50;99.90
44117;DHT22;29781;49.480;8.512;2023-04-29T14:20:23;15.50;99.90
44117;DHT22;29781;49.480;8.512;2023-04-29T14:22:48;15.60;99.90
44117;DHT22;29781;49.480;8.512;2023-04-29T14:25:14;15.60;99.90
44117;DHT22;29781;49.480;8.512;2023-04-29T14:27:39;15.80;99.90
44117;DHT22;29781;49.480;8.512;2023-04-29T14:30:05;15.60;99.90
44117;DHT22;29781;49.480;8.512;2023-04-29T14:32:31;15.40;99.90
44117;DHT22;29781;49.480;8.512;2023-04-29T14:34:57;15.50;99.90
44117;DHT22;29781;49.480;8.512;2023-04-29T14:37:23;15.60;99.90
44117;DHT22;29781;49.480;8.512;2023-04-29T14:39:48;15.70;99.90
44117;DHT22;29781;49.480;8.512;2023-04-29T14:42:14;15.80;99.90
44117;DHT22;29781;49.480;8.512;2023-04-29T14:44:39;15.80;99.90
44117;DHT22;29781;49.480;8.512;2023-04-29T14:47:05;15.90;99.90
44117;DHT22;29781;49.480;8.512;2023-04-29T14:49:30;15.80;99.90
44117;DHT22;29781;49.480;8.512;2023-04-29T14:51:56;15.60;99.90
44117;DHT22;29781;49.480;8.512;2023-04-29T14:54:21;15.30;99.90
44117;DHT22;29781;49.480;8.512;2023-04-29T14:56:47;15.40;99.90
44117;DHT22;29781;49.480;8.512;2023-04-29T14:59:13;15.60;99.90
44117;DHT22;29781;49.480;8.512;2023-04-29T15:01:38;15.60;99.90
44117;DHT22;29781;49.480;8.512;2023-04-29T15:04:04;15.90;99.90
44117;DHT22;29781;49.480;8.512;2023-04-29T15:06:33;15.80;99.90
44117;DHT22;29781;49.480;8.512;2023-04-29T15:08:59;15.90;99.90
44117;DHT22;29781;49.480;8.512;2023-04-29T15:11:25;16.00;99.90
44117;DHT22;29781;49.480;8.512;2023-04-29T15:13:51;16.10;99.90
44117;DHT22;29781;49.480;8.512;2023-04-29T15:16:16;16.10;99.90
44117;DHT22;29781;49.480;8.512;2023-04-29T15:18:42;15.70;99.90
44117;DHT22;29781;49.480;8.512;2023-04-29T15:21:07;15.60;99.90
44117;DHT22;29781;49.480;8.512;2023-04-29T15:23:33;15.70;99.90
44117;DHT22;29781;49.480;8.512;2023-04-29T15:25:59;15.80;99.90
44117;DHT22;29781;49.480;8.512;2023-04-29T15:28:24;15.80;99.90
44117;DHT22;29781;49.480;8.512;2023-04-29T15:30:50;15.80;99.90
44117;DHT22;29781;49.480;8.512;2023-04-29T15:33:16;15.80;99.90
44117;DHT22;29781;49.480;8.512;2023-04-29T15:35:41;15.70;99.90
44117;DHT22;29781;49.480;8.512;2023-04-29T15:38:07;15.70;99.90
44117;DHT22;29781;49.480;8.512;2023-04-29T15:40:33;15.80;99.90
44117;DHT22;29781;49.480;8.512;2023-04-29T15:42:59;15.90;99.90
44117;DHT22;29781;49.480;8.512;2023-04-29T15:45:25;15.80;99.90
44117;DHT22;29781;49.480;8.512;2023-04-29T15:47:50;16.00;99.90
44117;DHT22;29781;49.480;8.512;2023-04-29T15:50:16;16.00;99.90
44117;DHT22;29781;49.480;8.512;2023-04-29T15:52:41;15.80;99.90